sensor_id;sensor_type;location;lat;lon;timestamp;pressure;altitude;pressure_sealevel;temperature;humidity
10470;BME280;5282;47.052;15.458;2022-09-21T00:01:58;98085.66;;;8.51;100.00
10470;BME280;5282;47.052;15.458;2022-09-21T00:04:27;98086.91;;;8.57;100.00
10470;BME280;5282;47.052;15.458;2022-09-21T00:06:57;98090.88;;;8.62;100.00
10470;BME280;5282;47.052;15.458;2022-09-21T00:09:25;98082.13;;;8.70;100.00
10470;BME280;5282;47.052;15.458;2022-09-21T00:11:54;98085.22;;;8.66;100.00
10470;BME280;5282;47.052;15.458;2022-09-21T00:14:21;98087.50;;;8.70;100.00
10470;BME280;5282;47.052;15.458;2022-09-21T00:16:49;98088.03;;;8.74;100.00
10470;BME280;5282;47.052;15.458;2022-09-21T00:19:17;98101.28;;;8.36;100.00
10470;BME280;5282;47.052;15.458;2022-09-21T00:21:45;98101.00;;;8.29;100.00
10470;BME280;5282;47.052;15.458;2022-09-21T00:24:15;98095.66;;;8.69;100.00
10470;BME280;5282;47.052;15.458;2022-09-21T00:26:42;98103.31;;;8.73;100.00
10470;BME280;5282;47.052;15.458;2022-09-21T00:29:11;98089.63;;;8.67;100.00
10470;BME280;5282;47.052;15.458;2022-09-21T00:31:40;98095.50;;;8.41;100.00
10470;BME280;5282;47.052;15.458;2022-09-21T00:34:07;98093.56;;;7.92;100.00
10470;BME280;5282;47.052;15.458;2022-09-21T00:36:33;98089.56;;;7.77;100.00
10470;BME280;5282;47.052;15.458;2022-09-21T00:39:01;98094.56;;;7.81;100.00
10470;BME280;5282;47.052;15.458;2022-09-21T00:41:31;98095.19;;;8.14;100.00
10470;BME280;5282;47.052;15.458;2022-09-21T00:44:28;98098.84;;;8.23;100.00
10470;BME280;5282;47.052;15.458;2022-09-21T00:46:57;98109.28;;;8.07;100.00
10470;BME280;5282;47.052;15.458;2022-09-21T00:49:27;98114.66;;;7.66;100.00
10470;BME280;5282;47.052;15.458;2022-09-21T00:51:57;98104.91;;;7.65;100.00
10470;BME280;5282;47.052;15.458;2022-09-21T00:54:28;98113.88;;;7.85;100.00
10470;BME280;5282;47.052;15.458;2022-09-21T00:56:57;98107.25;;;7.89;100.00
10470;BME280;5282;47.052;15.458;2022-09-21T00:59:30;98106.03;;;8.03;100.00
10470;BME280;5282;47.052;15.458;2022-09-21T01:01:58;98104.59;;;7.99;100.00
10470;BME280;5282;47.052;15.458;2022-09-21T01:04:26;98106.25;;;7.90;100.00
10470;BME280;5282;47.052;15.458;2022-09-21T01:06:53;98113.41;;;8.11;100.00
10470;BME280;5282;47.052;15.458;2022-09-21T01:09:21;98107.88;;;8.12;100.00
10470;BME280;5282;47.052;15.458;2022-09-21T01:12:02;98107.69;;;7.94;100.00
10470;BME280;5282;47.052;15.458;2022-09-21T01:15:01;98115.53;;;7.76;100.00
10470;BME280;5282;47.052;15.458;2022-09-21T01:17:37;98112.81;;;7.66;100.00
10470;BME280;5282;47.052;15.458;2022-09-21T01:23:12;98105.84;;;7.54;100.00
10470;BME280;5282;47.052;15.458;2022-09-21T01:25:55;98100.84;;;7.70;100.00
10470;BME280;5282;47.052;15.458;2022-09-21T01:31:12;98103.47;;;7.92;100.00
10470;BME280;5282;47.052;15.458;2022-09-21T01:33:45;98116.13;;;7.80;100.00
10470;BME280;5282;47.052;15.458;2022-09-21T01:36:18;98104.25;;;7.82;100.00
10470;BME280;5282;47.052;15.458;2022-09-21T01:38:48;98106.81;;;7.84;100.00
10470;BME280;5282;47.052;15.458;2022-09-21T01:41:19;98100.63;;;7.93;100.00
10470;BME280;5282;47.052;15.458;2022-09-21T01:43:53;98108.88;;;8.11;100.00
10470;BME280;5282;47.052;15.458;2022-09-21T01:46:28;98110.88;;;8.19;100.00
10470;BME280;5282;47.052;15.458;2022-09-21T01:48:58;98109.44;;;8.05;100.00
10470;BME280;5282;47.052;15.458;2022-09-21T01:51:31;98108.03;;;8.11;100.00
10470;BME280;5282;47.052;15.458;2022-09-21T01:54:06;98111.81;;;7.98;100.00
10470;BME280;5282;47.052;15.458;2022-09-21T01:56:36;98111.94;;;7.87;100.00
10470;BME280;5282;47.052;15.458;2022-09-21T01:59:09;98104.19;;;7.53;100.00
10470;BME280;5282;47.052;15.458;2022-09-21T02:01:42;98113.00;;;7.44;100.00
10470;BME280;5282;47.052;15.458;2022-09-21T02:04:12;98121.50;;;7.28;100.00
10470;BME280;5282;47.052;15.458;2022-09-21T02:06:42;98114.47;;;7.26;100.00
10470;BME280;5282;47.052;15.458;2022-09-21T02:09:12;98109.22;;;7.46;100.00
10470;BME280;5282;47.052;15.458;2022-09-21T02:11:40;98105.59;;;7.57;100.00
10470;BME280;5282;47.052;15.458;2022-09-21T02:14:10;98101.63;;;7.51;100.00
10470;BME280;5282;47.052;15.458;2022-09-21T02:16:45;98100.69;;;7.72;100.00
10470;BME280;5282;47.052;15.458;2022-09-21T02:19:20;98095.53;;;7.80;100.00
10470;BME280;5282;47.052;15.458;2022-09-21T02:21:58;98102.59;;;7.81;100.00
10470;BME280;5282;47.052;15.458;2022-09-21T02:24:40;98100.91;;;7.80;100.00
10470;BME280;5282;47.052;15.458;2022-09-21T02:27:17;98101.19;;;7.87;100.00
10470;BME280;5282;47.052;15.458;2022-09-21T02:29:56;98106.56;;;7.87;100.00
10470;BME280;5282;47.052;15.458;2022-09-21T02:32:32;98106.56;;;7.87;100.00
10470;BME280;5282;47.052;15.458;2022-09-21T02:35:07;98113.56;;;7.78;100.00
10470;BME280;5282;47.052;15.458;2022-09-21T02:37:43;98107.41;;;7.87;100.00
10470;BME280;5282;47.052;15.458;2022-09-21T02:40:29;98110.91;;;7.78;100.00
10470;BME280;5282;47.052;15.458;2022-09-21T02:43:01;98109.34;;;7.85;100.00
10470;BME280;5282;47.052;15.458;2022-09-21T02:45:31;98105.81;;;7.75;100.00
10470;BME280;5282;47.052;15.458;2022-09-21T02:48:06;98104.25;;;7.72;100.00
10470;BME280;5282;47.052;15.458;2022-09-21T02:50:39;98113.28;;;7.71;100.00
10470;BME280;5282;47.052;15.458;2022-09-21T02:53:09;98114.16;;;7.82;100.00
10470;BME280;5282;47.052;15.458;2022-09-21T02:55:37;98115.53;;;7.76;100.00
10470;BME280;5282;47.052;15.458;2022-09-21T02:58:07;98110.13;;;7.66;100.00
10470;BME280;5282;47.052;15.458;2022-09-21T03:00:36;98114.66;;;7.66;100.00
10470;BME280;5282;47.052;15.458;2022-09-21T03:03:15;98114.72;;;7.76;100.00
10470;BME280;5282;47.052;15.458;2022-09-21T03:05:44;98118.38;;;7.75;100.00
10470;BME280;5282;47.052;15.458;2022-09-21T03:08:11;98110.13;;;7.66;100.00
10470;BME280;5282;47.052;15.458;2022-09-21T03:10:38;98111.81;;;7.57;100.00
10470;BME280;5282;47.052;15.458;2022-09-21T03:13:06;98117.28;;;7.56;100.00
10470;BME280;5282;47.052;15.458;2022-09-21T03:15:34;98125.63;;;7.53;100.00
10470;BME280;5282;47.052;15.458;2022-09-21T03:18:01;98131.22;;;7.50;100.00
10470;BME280;5282;47.052;15.458;2022-09-21T03:20:31;98133.50;;;7.54;100.00
10470;BME280;5282;47.052;15.458;2022-09-21T03:22:58;98131.94;;;7.52;100.00
10470;BME280;5282;47.052;15.458;2022-09-21T03:25:24;98133.44;;;7.45;100.00
10470;BME280;5282;47.052;15.458;2022-09-21T03:27:51;98126.75;;;7.29;100.00
10470;BME280;5282;47.052;15.458;2022-09-21T03:30:19;98128.66;;;7.17;100.00
10470;BME280;5282;47.052;15.458;2022-09-21T03:32:47;98134.00;;;7.17;100.00
10470;BME280;5282;47.052;15.458;2022-09-21T03:35:15;98134.16;;;7.16;100.00
10470;BME280;5282;47.052;15.458;2022-09-21T03:37:43;98135.84;;;7.17;100.00
10470;BME280;5282;47.052;15.458;2022-09-21T03:40:10;98135.09;;;6.93;100.00
10470;BME280;5282;47.052;15.458;2022-09-21T03:42:38;98129.81;;;6.82;100.00
10470;BME280;5282;47.052;15.458;2022-09-21T03:45:07;98132.81;;;6.89;100.00
10470;BME280;5282;47.052;15.458;2022-09-21T03:47:34;98127.88;;;7.05;100.00
10470;BME280;5282;47.052;15.458;2022-09-21T03:50:02;98135.63;;;7.08;100.00
10470;BME280;5282;47.052;15.458;2022-09-21T03:52:30;98135.38;;;7.33;100.00
10470;BME280;5282;47.052;15.458;2022-09-21T03:54:58;98133.13;;;7.38;100.00
10470;BME280;5282;47.052;15.458;2022-09-21T03:57:25;98137.09;;;7.44;100.00
10470;BME280;5282;47.052;15.458;2022-09-21T03:59:52;98137.09;;;7.44;100.00
10470;BME280;5282;47.052;15.458;2022-09-21T04:02:19;98132.28;;;7.37;100.00
10470;BME280;5282;47.052;15.458;2022-09-21T04:04:46;98141.00;;;7.30;100.00
10470;BME280;5282;47.052;15.458;2022-09-21T04:07:15;98141.84;;;7.30;100.00
10470;BME280;5282;47.052;15.458;2022-09-21T04:09:42;98141.31;;;7.36;100.00
10470;BME280;5282;47.052;15.458;2022-09-21T04:12:10;98143.72;;;7.39;100.00
10470;BME280;5282;47.052;15.458;2022-09-21T04:14:37;98147.22;;;7.30;100.00
10470;BME280;5282;47.052;15.458;2022-09-21T04:17:05;98140.81;;;7.21;100.00
10470;BME280;5282;47.052;15.458;2022-09-21T04:19:35;98143.00;;;7.16;100.00
10470;BME280;5282;47.052;15.458;2022-09-21T04:22:02;98142.91;;;7.18;100.00
10470;BME280;5282;47.052;15.458;2022-09-21T04:24:29;98143.91;;;7.26;100.00
10470;BME280;5282;47.052;15.458;2022-09-21T04:26:56;98147.06;;;7.32;100.00
10470;BME280;5282;47.052;15.458;2022-09-21T04:29:24;98152.28;;;7.33;100.00
10470;BME280;5282;47.052;15.458;2022-09-21T04:31:51;98159.00;;;7.28;100.00
10470;BME280;5282;47.052;15.458;2022-09-21T04:34:18;98154.97;;;7.33;100.00
10470;BME280;5282;47.052;15.458;2022-09-21T04:36:46;98152.25;;;7.23;100.00
10470;BME280;5282;47.052;15.458;2022-09-21T04:39:13;98155.09;;;7.10;100.00
10470;BME280;5282;47.052;15.458;2022-09-21T04:41:39;98163.78;;;7.24;100.00
10470;BME280;5282;47.052;15.458;2022-09-21T04:44:06;98157.84;;;7.20;100.00
10470;BME280;5282;47.052;15.458;2022-09-21T04:46:36;98166.19;;;7.06;100.00
10470;BME280;5282;47.052;15.458;2022-09-21T04:49:02;98177.88;;;6.84;100.00
10470;BME280;5282;47.052;15.458;2022-09-21T04:51:29;98177.09;;;6.60;100.00
10470;BME280;5282;47.052;15.458;2022-09-21T04:53:57;98172.44;;;6.74;100.00
10470;BME280;5282;47.052;15.458;2022-09-21T04:56:24;98167.38;;;6.92;100.00
10470;BME280;5282;47.052;15.458;2022-09-21T04:58:51;98176.44;;;6.79;100.00
10470;BME280;5282;47.052;15.458;2022-09-21T05:01:17;98180.91;;;6.46;100.00
10470;BME280;5282;47.052;15.458;2022-09-21T05:03:46;98179.47;;;6.42;100.00
10470;BME280;5282;47.052;15.458;2022-09-21T05:06:13;98177.69;;;6.64;100.00
10470;BME280;5282;47.052;15.458;2022-09-21T05:08:40;98178.97;;;6.81;100.00
10470;BME280;5282;47.052;15.458;2022-09-21T05:11:24;98179.91;;;6.91;100.00
10470;BME280;5282;47.052;15.458;2022-09-21T05:13:53;98168.53;;;6.99;100.00
10470;BME280;5282;47.052;15.458;2022-09-21T05:16:21;98176.91;;;7.06;100.00
10470;BME280;5282;47.052;15.458;2022-09-21T05:18:52;98173.41;;;7.05;100.00
10470;BME280;5282;47.052;15.458;2022-09-21T05:21:19;98181.88;;;7.10;100.00
10470;BME280;5282;47.052;15.458;2022-09-21T05:23:47;98186.25;;;7.12;100.00
10470;BME280;5282;47.052;15.458;2022-09-21T05:26:14;98186.00;;;7.15;100.00
10470;BME280;5282;47.052;15.458;2022-09-21T05:28:41;98178.69;;;7.17;100.00
10470;BME280;5282;47.052;15.458;2022-09-21T05:31:19;98183.91;;;7.18;100.00
10470;BME280;5282;47.052;15.458;2022-09-21T05:33:58;98192.81;;;7.19;100.00
10470;BME280;5282;47.052;15.458;2022-09-21T05:36:40;98194.13;;;7.24;100.00
10470;BME280;5282;47.052;15.458;2022-09-21T05:39:10;98195.69;;;7.27;100.00
10470;BME280;5282;47.052;15.458;2022-09-21T05:41:37;98199.78;;;7.31;100.00
10470;BME280;5282;47.052;15.458;2022-09-21T05:44:05;98201.38;;;7.34;100.00
10470;BME280;5282;47.052;15.458;2022-09-21T05:46:37;98197.44;;;7.38;100.00
10470;BME280;5282;47.052;15.458;2022-09-21T05:49:14;98200.44;;;7.45;100.00
10470;BME280;5282;47.052;15.458;2022-09-21T05:51:53;98201.63;;;7.52;100.00
10470;BME280;5282;47.052;15.458;2022-09-21T05:54:31;98204.00;;;7.55;100.00
10470;BME280;5282;47.052;15.458;2022-09-21T05:57:08;98210.31;;;7.44;100.00
10470;BME280;5282;47.052;15.458;2022-09-21T05:59:47;98201.34;;;7.55;100.00
10470;BME280;5282;47.052;15.458;2022-09-21T06:02:23;98204.91;;;7.65;100.00
10470;BME280;5282;47.052;15.458;2022-09-21T06:04:55;98206.34;;;7.69;100.00
10470;BME280;5282;47.052;15.458;2022-09-21T06:07:23;98212.78;;;7.57;100.00
10470;BME280;5282;47.052;15.458;2022-09-21T06:09:50;98211.47;;;7.72;100.00
10470;BME280;5282;47.052;15.458;2022-09-21T06:12:16;98211.22;;;7.76;100.00
10470;BME280;5282;47.052;15.458;2022-09-21T06:14:43;98212.94;;;7.86;100.00
10470;BME280;5282;47.052;15.458;2022-09-21T06:17:10;98215.09;;;7.93;100.00
10470;BME280;5282;47.052;15.458;2022-09-21T06:19:37;98213.56;;;8.00;100.00
10470;BME280;5282;47.052;15.458;2022-09-21T06:22:06;98213.25;;;7.93;100.00
10470;BME280;5282;47.052;15.458;2022-09-21T06:24:32;98215.53;;;7.98;100.00
10470;BME280;5282;47.052;15.458;2022-09-21T06:27:02;98207.06;;;8.02;100.00
10470;BME280;5282;47.052;15.458;2022-09-21T06:29:29;98207.94;;;8.03;100.00
10470;BME280;5282;47.052;15.458;2022-09-21T06:31:56;98209.97;;;8.11;100.00
10470;BME280;5282;47.052;15.458;2022-09-21T06:34:24;98206.00;;;8.15;100.00
10470;BME280;5282;47.052;15.458;2022-09-21T06:36:51;98206.31;;;8.22;100.00
10470;BME280;5282;47.052;15.458;2022-09-21T06:39:19;98204.66;;;8.30;100.00
10470;BME280;5282;47.052;15.458;2022-09-21T06:41:46;98210.44;;;8.36;100.00
10470;BME280;5282;47.052;15.458;2022-09-21T06:44:13;98207.47;;;8.39;100.00
10470;BME280;5282;47.052;15.458;2022-09-21T06:46:40;98208.94;;;8.53;100.00
10470;BME280;5282;47.052;15.458;2022-09-21T06:49:06;98203.34;;;8.66;100.00
10470;BME280;5282;47.052;15.458;2022-09-21T06:51:33;98211.28;;;8.77;100.00
10470;BME280;5282;47.052;15.458;2022-09-21T06:54:00;98207.31;;;8.81;100.00
10470;BME280;5282;47.052;15.458;2022-09-21T06:56:31;98212.13;;;8.87;100.00
10470;BME280;5282;47.052;15.458;2022-09-21T06:58:58;98216.50;;;8.98;100.00
10470;BME280;5282;47.052;15.458;2022-09-21T07:01:24;98208.31;;;9.09;100.00
10470;BME280;5282;47.052;15.458;2022-09-21T07:03:52;98214.81;;;9.17;100.00
10470;BME280;5282;47.052;15.458;2022-09-21T07:06:19;98215.22;;;9.22;100.00
10470;BME280;5282;47.052;15.458;2022-09-21T07:08:46;98212.97;;;9.27;100.00
10470;BME280;5282;47.052;15.458;2022-09-21T07:11:13;98210.97;;;9.39;99.47
10470;BME280;5282;47.052;15.458;2022-09-21T07:13:42;98214.38;;;9.51;98.79
10470;BME280;5282;47.052;15.458;2022-09-21T07:16:09;98216.59;;;9.65;95.11
10470;BME280;5282;47.052;15.458;2022-09-21T07:18:39;98215.44;;;9.78;89.51
10470;BME280;5282;47.052;15.458;2022-09-21T07:21:07;98218.09;;;9.87;86.63
10470;BME280;5282;47.052;15.458;2022-09-21T07:23:35;98219.03;;;10.06;80.72
10470;BME280;5282;47.052;15.458;2022-09-21T07:26:03;98211.75;;;10.16;77.56
10470;BME280;5282;47.052;15.458;2022-09-21T07:28:31;98214.94;;;10.30;79.30
10470;BME280;5282;47.052;15.458;2022-09-21T07:31:05;98215.19;;;10.46;75.25
10470;BME280;5282;47.052;15.458;2022-09-21T07:33:32;98216.25;;;10.54;78.70
10470;BME280;5282;47.052;15.458;2022-09-21T07:36:00;98206.31;;;10.64;74.79
10470;BME280;5282;47.052;15.458;2022-09-21T07:38:28;98212.75;;;10.71;73.33
10470;BME280;5282;47.052;15.458;2022-09-21T07:40:55;98211.38;;;10.85;73.44
10470;BME280;5282;47.052;15.458;2022-09-21T07:43:22;98222.41;;;10.92;69.13
10470;BME280;5282;47.052;15.458;2022-09-21T07:45:52;98212.41;;;11.02;69.37
10470;BME280;5282;47.052;15.458;2022-09-21T07:48:22;98215.56;;;11.16;69.46
10470;BME280;5282;47.052;15.458;2022-09-21T07:50:49;98214.94;;;11.22;66.64
10470;BME280;5282;47.052;15.458;2022-09-21T07:53:16;98218.53;;;11.31;67.04
10470;BME280;5282;47.052;15.458;2022-09-21T07:55:43;98209.91;;;11.45;67.22
10470;BME280;5282;47.052;15.458;2022-09-21T07:58:10;98214.53;;;11.53;67.06
10470;BME280;5282;47.052;15.458;2022-09-21T08:00:54;98209.22;;;11.69;67.83
10470;BME280;5282;47.052;15.458;2022-09-21T08:03:23;98211.53;;;11.82;64.83
10470;BME280;5282;47.052;15.458;2022-09-21T08:05:50;98214.47;;;11.97;63.01
10470;BME280;5282;47.052;15.458;2022-09-21T08:08:17;98207.63;;;12.03;66.33
10470;BME280;5282;47.052;15.458;2022-09-21T08:10:44;98209.19;;;12.14;64.50
10470;BME280;5282;47.052;15.458;2022-09-21T08:13:11;98218.38;;;12.29;59.68
10470;BME280;5282;47.052;15.458;2022-09-21T08:15:38;98211.78;;;12.32;58.45
10470;BME280;5282;47.052;15.458;2022-09-21T08:18:05;98211.34;;;12.37;61.25
10470;BME280;5282;47.052;15.458;2022-09-21T08:20:34;98213.38;;;12.43;55.27
10470;BME280;5282;47.052;15.458;2022-09-21T08:23:01;98208.28;;;12.40;54.11
10470;BME280;5282;47.052;15.458;2022-09-21T08:25:29;98211.88;;;12.48;54.70
10470;BME280;5282;47.052;15.458;2022-09-21T08:27:57;98205.69;;;12.64;54.42
10470;BME280;5282;47.052;15.458;2022-09-21T08:30:25;98203.84;;;12.73;55.49
10470;BME280;5282;47.052;15.458;2022-09-21T08:32:55;98202.53;;;12.94;54.92
10470;BME280;5282;47.052;15.458;2022-09-21T08:35:22;98203.41;;;13.19;53.90
10470;BME280;5282;47.052;15.458;2022-09-21T08:37:53;98212.53;;;13.35;55.82
10470;BME280;5282;47.052;15.458;2022-09-21T08:40:20;98210.03;;;13.50;55.81
10470;BME280;5282;47.052;15.458;2022-09-21T08:42:54;98203.78;;;13.57;54.54
10470;BME280;5282;47.052;15.458;2022-09-21T08:45:24;98211.88;;;13.74;55.24
10470;BME280;5282;47.052;15.458;2022-09-21T08:47:55;98211.72;;;13.67;51.94
10470;BME280;5282;47.052;15.458;2022-09-21T08:50:31;98214.59;;;13.57;52.08
10470;BME280;5282;47.052;15.458;2022-09-21T08:53:05;98211.88;;;13.41;53.23
10470;BME280;5282;47.052;15.458;2022-09-21T08:55:32;98209.00;;;13.34;50.67
10470;BME280;5282;47.052;15.458;2022-09-21T08:58:01;98211.50;;;13.19;55.38
10470;BME280;5282;47.052;15.458;2022-09-21T09:00:33;98214.56;;;13.33;55.81
10470;BME280;5282;47.052;15.458;2022-09-21T09:03:17;98216.22;;;13.17;51.92
10470;BME280;5282;47.052;15.458;2022-09-21T09:05:51;98207.78;;;13.20;49.19
10470;BME280;5282;47.052;15.458;2022-09-21T09:08:44;98206.94;;;12.95;49.49
10470;BME280;5282;47.052;15.458;2022-09-21T09:11:27;98210.13;;;12.99;50.18
10470;BME280;5282;47.052;15.458;2022-09-21T09:14:10;98220.81;;;13.08;49.18
10470;BME280;5282;47.052;15.458;2022-09-21T09:16:47;98215.22;;;13.10;49.44
10470;BME280;5282;47.052;15.458;2022-09-21T09:19:20;98215.38;;;13.00;51.53
10470;BME280;5282;47.052;15.458;2022-09-21T09:21:49;98214.16;;;12.86;51.98
10470;BME280;5282;47.052;15.458;2022-09-21T09:24:31;98206.94;;;12.95;52.10
10470;BME280;5282;47.052;15.458;2022-09-21T09:27:01;98213.72;;;12.99;50.97
10470;BME280;5282;47.052;15.458;2022-09-21T09:29:34;98207.44;;;12.99;49.83
10470;BME280;5282;47.052;15.458;2022-09-21T09:32:05;98204.41;;;13.18;51.53
10470;BME280;5282;47.052;15.458;2022-09-21T09:34:39;98192.09;;;13.65;48.50
10470;BME280;5282;47.052;15.458;2022-09-21T09:37:11;98190.66;;;14.11;48.88
10470;BME280;5282;47.052;15.458;2022-09-21T09:39:44;98187.06;;;14.18;45.96
10470;BME280;5282;47.052;15.458;2022-09-21T09:42:23;98193.34;;;14.11;46.30
10470;BME280;5282;47.052;15.458;2022-09-21T09:45:07;98199.53;;;13.80;47.35
10470;BME280;5282;47.052;15.458;2022-09-21T09:47:47;98188.13;;;14.01;48.60
10470;BME280;5282;47.052;15.458;2022-09-21T09:50:24;98184.44;;;13.94;46.99
10470;BME280;5282;47.052;15.458;2022-09-21T09:52:58;98187.59;;;14.06;48.30
10470;BME280;5282;47.052;15.458;2022-09-21T09:55:35;98191.03;;;13.83;46.51
10470;BME280;5282;47.052;15.458;2022-09-21T09:58:03;98181.44;;;13.64;47.75
10470;BME280;5282;47.052;15.458;2022-09-21T10:00:30;98182.09;;;13.82;46.59
10470;BME280;5282;47.052;15.458;2022-09-21T10:02:57;98180.66;;;14.11;46.75
10470;BME280;5282;47.052;15.458;2022-09-21T10:05:36;98185.09;;;14.04;47.65
10470;BME280;5282;47.052;15.458;2022-09-21T10:08:04;98183.91;;;14.46;46.88
10470;BME280;5282;47.052;15.458;2022-09-21T10:10:35;98177.63;;;14.86;46.78
10470;BME280;5282;47.052;15.458;2022-09-21T10:13:10;98171.06;;;15.26;44.33
10470;BME280;5282;47.052;15.458;2022-09-21T10:15:43;98162.50;;;15.53;45.00
10470;BME280;5282;47.052;15.458;2022-09-21T10:18:16;98171.31;;;15.93;44.58
10470;BME280;5282;47.052;15.458;2022-09-21T10:20:56;98173.06;;;15.86;41.84
10470;BME280;5282;47.052;15.458;2022-09-21T10:23:25;98168.84;;;15.83;42.86
10470;BME280;5282;47.052;15.458;2022-09-21T10:25:55;98169.31;;;15.49;41.02
10470;BME280;5282;47.052;15.458;2022-09-21T10:28:23;98173.50;;;15.36;43.68
10470;BME280;5282;47.052;15.458;2022-09-21T10:31:08;98163.50;;;15.37;43.25
10470;BME280;5282;47.052;15.458;2022-09-21T10:33:52;98161.91;;;15.04;43.57
10470;BME280;5282;47.052;15.458;2022-09-21T10:36:31;98171.84;;;14.89;44.62
10470;BME280;5282;47.052;15.458;2022-09-21T10:39:22;98158.09;;;15.14;46.40
10470;BME280;5282;47.052;15.458;2022-09-21T10:41:53;98155.34;;;15.22;45.53
10470;BME280;5282;47.052;15.458;2022-09-21T10:44:26;98159.97;;;14.90;46.61
10470;BME280;5282;47.052;15.458;2022-09-21T10:46:54;98167.34;;;14.73;46.38
10470;BME280;5282;47.052;15.458;2022-09-21T10:49:23;98172.03;;;15.10;47.89
10470;BME280;5282;47.052;15.458;2022-09-21T10:51:53;98169.66;;;14.84;45.97
10470;BME280;5282;47.052;15.458;2022-09-21T10:54:24;98175.81;;;14.78;46.64
10470;BME280;5282;47.052;15.458;2022-09-21T10:56:56;98169.97;;;14.89;46.31
10470;BME280;5282;47.052;15.458;2022-09-21T10:59:25;98168.41;;;14.95;45.97
10470;BME280;5282;47.052;15.458;2022-09-21T11:01:55;98177.16;;;15.05;45.90
10470;BME280;5282;47.052;15.458;2022-09-21T11:04:33;98175.59;;;14.88;46.51
10470;BME280;5282;47.052;15.458;2022-09-21T11:07:12;98174.03;;;14.93;46.21
10470;BME280;5282;47.052;15.458;2022-09-21T11:09:47;98173.50;;;14.90;47.19
10470;BME280;5282;47.052;15.458;2022-09-21T11:12:30;98162.44;;;15.23;45.07
10470;BME280;5282;47.052;15.458;2022-09-21T11:15:07;98157.66;;;15.63;45.35
10470;BME280;5282;47.052;15.458;2022-09-21T11:17:39;98159.03;;;16.27;42.28
10470;BME280;5282;47.052;15.458;2022-09-21T11:20:19;98152.16;;;16.83;41.82
10470;BME280;5282;47.052;15.458;2022-09-21T11:22:53;98162.75;;;17.36;40.31
10470;BME280;5282;47.052;15.458;2022-09-21T11:25:29;98163.06;;;17.77;41.15
10470;BME280;5282;47.052;15.458;2022-09-21T11:28:04;98157.91;;;17.60;41.18
10470;BME280;5282;47.052;15.458;2022-09-21T11:30:54;98152.50;;;17.67;40.75
10470;BME280;5282;47.052;15.458;2022-09-21T11:33:37;98148.47;;;18.19;40.51
10470;BME280;5282;47.052;15.458;2022-09-21T11:36:18;98144.84;;;18.06;39.93
10470;BME280;5282;47.052;15.458;2022-09-21T11:38:55;98153.91;;;17.84;39.19
10470;BME280;5282;47.052;15.458;2022-09-21T11:41:45;98160.88;;;17.15;41.17
10470;BME280;5282;47.052;15.458;2022-09-21T11:44:46;98161.34;;;16.82;40.71
10470;BME280;5282;47.052;15.458;2022-09-21T11:47:36;98164.50;;;16.64;40.86
10470;BME280;5282;47.052;15.458;2022-09-21T11:50:27;98163.41;;;17.17;40.56
10470;BME280;5282;47.052;15.458;2022-09-21T11:53:09;98163.72;;;16.70;40.82
10470;BME280;5282;47.052;15.458;2022-09-21T11:55:50;98168.03;;;16.13;44.67
10470;BME280;5282;47.052;15.458;2022-09-21T11:58:27;98171.31;;;15.93;41.65
10470;BME280;5282;47.052;15.458;2022-09-21T12:01:06;98167.72;;;15.78;44.09
10470;BME280;5282;47.052;15.458;2022-09-21T12:03:54;98152.28;;;16.23;43.68
10470;BME280;5282;47.052;15.458;2022-09-21T12:06:44;98159.78;;;16.06;42.13
10470;BME280;5282;47.052;15.458;2022-09-21T12:09:33;98161.25;;;15.79;43.67
10470;BME280;5282;47.052;15.458;2022-09-21T12:12:05;98145.75;;;16.02;43.09
10470;BME280;5282;47.052;15.458;2022-09-21T12:14:39;98146.56;;;16.18;43.38
10470;BME280;5282;47.052;15.458;2022-09-21T12:17:14;98143.47;;;16.21;42.80
10470;BME280;5282;47.052;15.458;2022-09-21T12:19:50;98140.78;;;16.06;42.15
10470;BME280;5282;47.052;15.458;2022-09-21T12:22:25;98146.88;;;15.93;43.88
10470;BME280;5282;47.052;15.458;2022-09-21T12:24:57;98148.72;;;16.08;41.55
10470;BME280;5282;47.052;15.458;2022-09-21T12:27:29;98148.63;;;15.86;42.62
10470;BME280;5282;47.052;15.458;2022-09-21T12:30:01;98138.91;;;16.22;41.51
10470;BME280;5282;47.052;15.458;2022-09-21T12:32:38;98134.66;;;16.34;41.02
10470;BME280;5282;47.052;15.458;2022-09-21T12:35:16;98139.25;;;16.33;41.56
10470;BME280;5282;47.052;15.458;2022-09-21T12:37:50;98132.41;;;16.23;38.97
10470;BME280;5282;47.052;15.458;2022-09-21T12:40:28;98127.97;;;16.52;40.51
10470;BME280;5282;47.052;15.458;2022-09-21T12:43:04;98129.59;;;16.68;40.07
10470;BME280;5282;47.052;15.458;2022-09-21T12:45:37;98127.28;;;16.64;40.18
10470;BME280;5282;47.052;15.458;2022-09-21T12:48:17;98126.91;;;16.89;39.82
10470;BME280;5282;47.052;15.458;2022-09-21T12:50:51;98122.66;;;17.02;39.26
10470;BME280;5282;47.052;15.458;2022-09-21T12:53:24;98121.22;;;16.84;40.78
10470;BME280;5282;47.052;15.458;2022-09-21T12:55:55;98125.66;;;16.92;40.25
10470;BME280;5282;47.052;15.458;2022-09-21T12:58:38;98115.91;;;16.98;39.57
10470;BME280;5282;47.052;15.458;2022-09-21T13:01:19;98124.78;;;17.06;38.80
10470;BME280;5282;47.052;15.458;2022-09-21T13:03:58;98124.94;;;17.20;37.65
10470;BME280;5282;47.052;15.458;2022-09-21T13:09:28;98106.09;;;17.75;36.71
10470;BME280;5282;47.052;15.458;2022-09-21T13:11:58;98106.16;;;17.32;38.54
10470;BME280;5282;47.052;15.458;2022-09-21T13:14:29;98102.03;;;17.36;37.63
10470;BME280;5282;47.052;15.458;2022-09-21T13:17:01;98100.91;;;17.02;38.17
10470;BME280;5282;47.052;15.458;2022-09-21T13:19:33;98108.06;;;16.66;38.89
10470;BME280;5282;47.052;15.458;2022-09-21T13:22:12;98105.53;;;17.01;39.03
10470;BME280;5282;47.052;15.458;2022-09-21T13:24:55;98104.34;;;16.52;39.91
10470;BME280;5282;47.052;15.458;2022-09-21T13:27:59;98104.53;;;16.50;39.92
10470;BME280;5282;47.052;15.458;2022-09-21T13:30:33;98107.13;;;16.22;40.66
10470;BME280;5282;47.052;15.458;2022-09-21T13:33:02;98100.78;;;16.15;40.79
10470;BME280;5282;47.052;15.458;2022-09-21T13:35:51;98098.38;;;15.90;41.11